createdAt,value
2022-09-23T00:01:09.995Z,61.13
2022-09-23T00:03:39.074Z,60.91
2022-09-23T00:06:10.910Z,59.62
2022-09-23T00:08:38.777Z,60.92
2022-09-23T00:11:10.668Z,61.39
2022-09-23T00:13:38.569Z,61.84
2022-09-23T00:16:08.057Z,61.78
2022-09-23T00:18:35.466Z,61.98
2022-09-23T00:21:06.640Z,61.19
2022-09-23T00:23:34.355Z,61.26
2022-09-23T00:26:02.679Z,61.66
2022-09-23T00:28:30.615Z,61.23
2022-09-23T00:31:03.070Z,59.84
2022-09-23T00:33:30.462Z,61.10
2022-09-23T00:36:05.462Z,61.13
2022-09-23T00:38:34.012Z,61.16
2022-09-23T00:41:17.007Z,61.77
2022-09-23T00:43:52.867Z,61.93
2022-09-23T00:46:37.177Z,62.18
2022-09-23T00:49:14.083Z,61.85
2022-09-23T00:51:44.646Z,61.55
2022-09-23T00:54:11.990Z,61.33
2022-09-23T00:56:39.353Z,60.96
2022-09-23T00:59:07.606Z,61.73
2022-09-23T01:01:35.500Z,62.53
2022-09-23T01:04:02.935Z,62.19
2022-09-23T01:06:30.908Z,61.58
2022-09-23T01:08:58.277Z,61.77
2022-09-23T01:11:50.148Z,62.73
2022-09-23T01:14:38.994Z,62.26
2022-09-23T01:17:08.959Z,61.92
2022-09-23T01:19:36.396Z,61.43
2022-09-23T01:22:19.514Z,61.43
2022-09-23T01:25:09.101Z,61.56
2022-09-23T01:27:43.261Z,61.45
2022-09-23T01:30:11.107Z,61.48
2022-09-23T01:32:54.828Z,62.06
2022-09-23T01:35:34.293Z,60.76
2022-09-23T01:38:16.241Z,61.70
2022-09-23T01:41:05.019Z,60.64
2022-09-23T01:43:53.690Z,61.36
2022-09-23T01:46:25.490Z,61.36
2022-09-23T01:49:12.897Z,61.55
2022-09-23T01:51:46.778Z,61.76
2022-09-23T01:54:17.718Z,61.06
2022-09-23T01:56:53.800Z,61.08
2022-09-23T01:59:40.234Z,60.85
2022-09-23T02:02:16.621Z,60.90
2022-09-23T02:04:45.586Z,61.05
2022-09-23T02:07:32.216Z,61.56
2022-09-23T02:10:14.126Z,61.48
2022-09-23T02:12:42.168Z,62.13
2022-09-23T02:15:11.850Z,61.94
2022-09-23T02:17:42.562Z,61.94
2022-09-23T02:20:10.537Z,62.35
2022-09-23T02:22:44.426Z,61.93
2022-09-23T02:25:12.586Z,62.02
2022-09-23T02:27:44.734Z,61.66
2022-09-23T02:30:17.770Z,61.39
2022-09-23T02:32:58.385Z,61.16
2022-09-23T02:35:37.127Z,61.39
2022-09-23T02:38:12.618Z,61.28
2022-09-23T02:40:54.780Z,61.12
2022-09-23T02:43:36.126Z,61.86
2022-09-23T02:46:04.069Z,62.31
2022-09-23T02:48:53.315Z,62.63
2022-09-23T02:51:21.002Z,62.75
2022-09-23T02:53:48.339Z,62.82
2022-09-23T02:56:20.978Z,62.91
2022-09-23T02:58:49.289Z,62.48
2022-09-23T03:01:41.259Z,62.98
2022-09-23T03:04:27.065Z,62.06
2022-09-23T03:07:22.055Z,62.36
2022-09-23T03:10:04.748Z,62.68
2022-09-23T03:12:52.879Z,62.16
2022-09-23T03:15:36.546Z,62.32
2022-09-23T03:18:15.878Z,62.24
2022-09-23T03:20:50.157Z,62.77
2022-09-23T03:23:23.566Z,62.32
2022-09-23T03:25:54.046Z,62.40
2022-09-23T03:28:22.147Z,62.72
2022-09-23T03:30:51.027Z,62.24
2022-09-23T03:33:19.509Z,61.99
2022-09-23T03:36:13.173Z,62.01
2022-09-23T03:38:43.154Z,62.47
2022-09-23T03:41:12.038Z,62.08
2022-09-23T03:43:39.430Z,62.49
2022-09-23T03:46:08.212Z,62.43
2022-09-23T03:48:35.585Z,62.90
2022-09-23T03:51:18.108Z,63.17
2022-09-23T03:53:45.743Z,62.64
2022-09-23T03:56:13.102Z,62.63
2022-09-23T03:58:40.502Z,63.77
2022-09-23T04:01:08.172Z,67.52
2022-09-23T04:03:35.802Z,68.15
2022-09-23T04:06:03.130Z,64.50
2022-09-23T04:08:30.531Z,64.35
2022-09-23T04:11:01.720Z,63.27
2022-09-23T04:13:29.445Z,63.02
2022-09-23T04:15:56.809Z,62.46
2022-09-23T04:18:24.523Z,63.24
2022-09-23T04:20:51.871Z,62.85
2022-09-23T04:23:19.219Z,63.34
2022-09-23T04:25:49.643Z,63.03
2022-09-23T04:28:16.980Z,62.34
2022-09-23T04:30:46.040Z,62.80
2022-09-23T04:33:13.728Z,63.48
2022-09-23T04:35:43.042Z,63.73
2022-09-23T04:38:13.431Z,62.94
2022-09-23T04:40:41.119Z,63.31
2022-09-23T04:43:13.363Z,63.00
2022-09-23T04:45:41.489Z,62.80
2022-09-23T04:48:10.270Z,62.16
2022-09-23T04:50:37.814Z,62.22
2022-09-23T04:53:05.537Z,62.13
2022-09-23T04:55:32.902Z,62.08
2022-09-23T04:58:00.386Z,61.84
2022-09-23T05:00:28.666Z,61.63
2022-09-23T05:02:56.136Z,61.60
2022-09-23T05:05:24.230Z,61.05
2022-09-23T05:07:51.852Z,61.13
2022-09-23T05:10:19.191Z,60.95
2022-09-23T05:12:46.545Z,61.02
2022-09-23T05:15:15.136Z,62.08
2022-09-23T05:17:43.100Z,62.22
2022-09-23T05:20:11.350Z,61.34
2022-09-23T05:22:38.973Z,61.47
2022-09-23T05:25:06.518Z,61.17
2022-09-23T05:27:33.864Z,60.73
2022-09-23T05:30:01.494Z,59.84
2022-09-23T05:32:28.826Z,59.13
2022-09-23T05:34:56.218Z,60.43
2022-09-23T05:37:25.327Z,60.84
2022-09-23T05:39:52.690Z,60.45
2022-09-23T05:42:20.975Z,60.65
2022-09-23T05:44:48.900Z,60.40
2022-09-23T05:47:16.306Z,59.85
2022-09-23T05:49:59.103Z,60.86
2022-09-23T05:52:27.982Z,61.36
2022-09-23T05:54:55.372Z,60.33
2022-09-23T05:57:22.748Z,59.85
2022-09-23T05:59:50.402Z,60.41
2022-09-23T06:02:17.836Z,59.59
2022-09-23T06:04:45.498Z,59.67
2022-09-23T06:07:12.879Z,59.39
2022-09-23T06:09:42.356Z,59.56
2022-09-23T06:12:09.995Z,59.03
2022-09-23T06:14:37.372Z,60.08
2022-09-23T06:17:05.586Z,59.58
2022-09-23T06:19:33.200Z,58.72
2022-09-23T06:22:00.580Z,58.27
2022-09-23T06:24:31.320Z,57.78
2022-09-23T06:26:59.059Z,57.42
2022-09-23T06:29:26.505Z,58.99
2022-09-23T06:31:53.901Z,58.51
2022-09-23T06:34:21.758Z,62.25
2022-09-23T06:36:49.338Z,60.80
2022-09-23T06:39:16.734Z,60.57
2022-09-23T06:41:45.114Z,61.89
2022-09-23T06:44:13.837Z,60.58
2022-09-23T06:46:41.360Z,60.89
2022-09-23T06:49:09.132Z,62.87
2022-09-23T06:51:36.709Z,61.94
2022-09-23T06:54:04.476Z,60.92
2022-09-23T06:56:36.304Z,59.61
2022-09-23T06:59:05.558Z,59.20
2022-09-23T07:01:34.470Z,59.02
2022-09-23T07:04:02.066Z,57.33
2022-09-23T07:06:29.403Z,58.50
2022-09-23T07:08:57.040Z,57.88
2022-09-23T07:11:24.391Z,58.09
2022-09-23T07:13:51.783Z,57.72
2022-09-23T07:16:19.717Z,56.56
2022-09-23T07:18:47.346Z,56.48
2022-09-23T07:21:18.457Z,56.27
2022-09-23T07:23:47.551Z,56.79
2022-09-23T07:26:15.193Z,56.42
2022-09-23T07:28:42.606Z,56.19
2022-09-23T07:31:12.785Z,56.57
2022-09-23T07:33:41.454Z,57.91
2022-09-23T07:36:13.505Z,56.64
2022-09-23T07:38:45.177Z,56.87
2022-09-23T07:41:17.759Z,56.30
2022-09-23T07:43:46.108Z,55.40
2022-09-23T07:46:16.408Z,55.88
2022-09-23T07:48:44.703Z,56.24
2022-09-23T07:51:36.328Z,57.20
2022-09-23T07:54:10.276Z,55.31
2022-09-23T07:56:38.323Z,57.03
2022-09-23T07:59:08.568Z,56.00
2022-09-23T08:01:41.281Z,56.76
2022-09-23T08:04:12.052Z,58.59
2022-09-23T08:06:43.876Z,59.10
2022-09-23T08:09:11.713Z,57.15
2022-09-23T08:11:42.483Z,58.86
2022-09-23T08:14:10.994Z,56.03
2022-09-23T08:16:39.826Z,56.48
2022-09-23T08:19:07.537Z,54.41
2022-09-23T08:21:34.953Z,56.00
2022-09-23T08:24:02.781Z,56.79
2022-09-23T08:26:30.932Z,55.05
2022-09-23T08:28:58.535Z,55.49
2022-09-23T08:31:27.562Z,58.14
2022-09-23T08:33:56.261Z,55.56
2022-09-23T08:36:24.171Z,54.17
2022-09-23T08:38:51.983Z,53.15
2022-09-23T08:41:37.947Z,54.80
2022-09-23T08:44:16.967Z,53.11
2022-09-23T08:46:48.028Z,54.13
2022-09-23T08:49:21.725Z,55.04
2022-09-23T08:51:49.309Z,54.23
2022-09-23T08:54:17.070Z,53.11
2022-09-23T08:56:45.309Z,52.73
2022-09-23T08:59:15.037Z,53.59
2022-09-23T09:02:45.837Z,54.18
2022-09-23T09:06:27.865Z,53.23
2022-09-23T09:09:27.189Z,53.49
2022-09-23T09:12:16.801Z,53.99
2022-09-23T09:14:57.010Z,51.27
2022-09-23T09:18:03.731Z,52.00
2022-09-23T09:20:41.500Z,51.46
2022-09-23T09:23:23.453Z,51.02
2022-09-23T09:26:01.598Z,52.55
2022-09-23T09:28:43.533Z,51.45
2022-09-23T09:31:42.594Z,50.23
2022-09-23T09:34:34.474Z,50.89
2022-09-23T09:37:18.237Z,51.38
2022-09-23T09:39:46.353Z,49.52
2022-09-23T09:42:23.594Z,50.80
2022-09-23T09:45:01.907Z,50.42
2022-09-23T09:48:00.962Z,51.57
2022-09-23T09:50:49.360Z,49.79
2022-09-23T09:53:21.852Z,48.57
2022-09-23T09:56:11.260Z,50.50
2022-09-23T09:58:54.021Z,51.26
2022-09-23T10:01:31.925Z,52.38
2022-09-23T10:04:18.640Z,50.73
2022-09-23T10:07:03.022Z,50.00
2022-09-23T10:09:33.808Z,49.27
2022-09-23T10:12:21.310Z,49.25
2022-09-23T10:14:51.420Z,48.21
2022-09-23T10:17:28.399Z,47.56
2022-09-23T10:20:01.005Z,46.76
2022-09-23T10:22:47.106Z,47.45
2022-09-23T10:25:20.290Z,46.24
2022-09-23T10:27:47.622Z,46.80
2022-09-23T10:30:15.044Z,49.45
2022-09-23T10:32:45.368Z,47.37
2022-09-23T10:35:23.822Z,45.67
2022-09-23T10:37:55.531Z,45.02
2022-09-23T10:40:56.033Z,44.77
2022-09-23T10:44:07.208Z,44.26
2022-09-23T10:46:41.668Z,46.26
2022-09-23T10:49:31.134Z,45.46
2022-09-23T10:52:22.680Z,44.30
2022-09-23T10:55:17.666Z,44.23
2022-09-23T10:57:44.922Z,44.68
2022-09-23T11:00:27.687Z,42.51
2022-09-23T11:03:18.649Z,41.79
2022-09-23T11:05:58.266Z,43.01
2022-09-23T11:08:59.619Z,42.04
2022-09-23T11:11:46.331Z,42.57
2022-09-23T11:14:32.748Z,42.14
2022-09-23T11:17:24.783Z,42.48
2022-09-23T11:19:56.457Z,42.70
2022-09-23T11:22:45.734Z,41.78
2022-09-23T11:25:40.876Z,41.36
2022-09-23T11:28:42.487Z,41.47
2022-09-23T11:31:37.341Z,40.64
2022-09-23T11:34:30.218Z,41.27
2022-09-23T11:37:12.840Z,41.43
2022-09-23T11:40:03.584Z,40.62
2022-09-23T11:42:33.903Z,43.70
2022-09-23T11:45:13.061Z,43.67
2022-09-23T11:47:46.652Z,43.16
2022-09-23T11:50:47.036Z,42.99
2022-09-23T11:53:45.152Z,43.79
2022-09-23T11:56:33.319Z,43.10
2022-09-23T11:59:19.986Z,42.36
2022-09-23T12:01:55.308Z,42.33
2022-09-23T12:04:52.650Z,43.59
2022-09-23T12:07:25.672Z,42.76
2022-09-23T12:10:03.534Z,44.39
2022-09-23T12:12:52.147Z,44.29
2022-09-23T12:15:27.017Z,42.42
2022-09-23T12:18:04.695Z,42.36
2022-09-23T12:21:08.763Z,41.21
2022-09-23T12:23:53.996Z,41.86
2022-09-23T12:26:23.250Z,41.47
2022-09-23T12:28:52.010Z,39.06
2022-09-23T12:31:21.894Z,39.09
2022-09-23T12:33:53.655Z,38.17
2022-09-23T12:36:34.720Z,36.37
2022-09-23T12:39:06.331Z,36.86
2022-09-23T12:41:38.723Z,38.95
2022-09-23T12:44:15.403Z,38.23
2022-09-23T12:46:45.467Z,37.70
2022-09-23T12:49:28.276Z,37.28
2022-09-23T12:52:10.754Z,37.45
2022-09-23T12:54:39.343Z,36.77
2022-09-23T12:57:32.198Z,37.29
2022-09-23T13:00:13.125Z,36.37
2022-09-23T13:02:46.966Z,36.47
2022-09-23T13:05:40.483Z,34.83
2022-09-23T13:08:18.604Z,35.26
2022-09-23T13:10:54.690Z,34.89
2022-09-23T13:13:29.663Z,34.07
2022-09-23T13:16:12.608Z,36.03
2022-09-23T13:19:04.800Z,35.82
2022-09-23T13:21:44.871Z,36.07
2022-09-23T13:24:28.923Z,36.38
2022-09-23T13:27:00.331Z,36.89
2022-09-23T13:29:38.110Z,36.76
2022-09-23T13:32:06.363Z,35.64
2022-09-23T13:34:34.545Z,36.95
2022-09-23T13:37:22.176Z,35.51
2022-09-23T13:39:50.997Z,35.99
2022-09-23T13:42:38.172Z,34.61
2022-09-23T13:45:06.658Z,33.96
2022-09-23T13:47:34.008Z,36.00
2022-09-23T13:50:02.131Z,37.09
2022-09-23T13:52:31.327Z,37.61
2022-09-23T13:54:58.720Z,37.16
2022-09-23T13:57:27.975Z,38.01
2022-09-23T14:00:21.152Z,39.29
2022-09-23T14:02:48.920Z,39.41
2022-09-23T14:05:27.192Z,38.08
2022-09-23T14:07:55.302Z,38.80
2022-09-23T14:10:28.732Z,39.30
2022-09-23T14:13:00.925Z,40.55
2022-09-23T14:15:32.717Z,40.39
2022-09-23T14:18:06.592Z,38.78
2022-09-23T14:20:50.440Z,38.56
2022-09-23T14:23:20.752Z,40.30
2022-09-23T14:25:49.251Z,39.53
2022-09-23T14:28:19.183Z,39.63
2022-09-23T14:30:51.357Z,39.05
2022-09-23T14:33:27.407Z,39.79
2022-09-23T14:36:07.245Z,40.09
2022-09-23T14:38:51.819Z,39.19
2022-09-23T14:41:23.751Z,38.53
2022-09-23T14:43:54.612Z,38.26
2022-09-23T14:46:23.076Z,38.14
2022-09-23T14:49:11.642Z,38.41
2022-09-23T14:51:49.357Z,38.69
2022-09-23T14:54:44.008Z,39.48
2022-09-23T14:57:38.558Z,38.81
2022-09-23T15:00:18.142Z,39.24
2022-09-23T15:02:57.774Z,40.77
2022-09-23T15:05:45.292Z,39.75
2022-09-23T15:08:15.786Z,39.92
2022-09-23T15:10:43.099Z,41.67
2022-09-23T15:13:22.247Z,42.26
2022-09-23T15:15:53.403Z,42.94
2022-09-23T15:18:25.604Z,41.73
2022-09-23T15:20:54.690Z,42.29
2022-09-23T15:23:50.666Z,42.44
2022-09-23T15:26:39.191Z,41.48
2022-09-23T15:29:09.773Z,42.33
2022-09-23T15:31:37.708Z,41.65
2022-09-23T15:34:10.140Z,42.54
2022-09-23T15:36:38.569Z,41.65
2022-09-23T15:39:07.067Z,42.78
2022-09-23T15:41:34.692Z,43.76
2022-09-23T15:44:11.463Z,45.31
2022-09-23T15:46:39.990Z,45.96
2022-09-23T15:49:15.213Z,45.81
2022-09-23T15:51:43.063Z,47.71
2022-09-23T15:54:13.822Z,47.62
2022-09-23T15:56:41.167Z,48.42
2022-09-23T15:59:08.573Z,49.07
2022-09-23T16:01:36.444Z,49.40
2022-09-23T16:04:04.527Z,49.33
2022-09-23T16:06:32.098Z,49.68
2022-09-23T16:08:59.430Z,49.69
2022-09-23T16:11:33.437Z,50.02
2022-09-23T16:14:00.831Z,50.53
2022-09-23T16:16:28.715Z,50.86
2022-09-23T16:18:56.216Z,51.16
2022-09-23T16:21:24.741Z,51.70
2022-09-23T16:23:53.418Z,51.82
2022-09-23T16:26:22.894Z,51.52
2022-09-23T16:28:51.169Z,52.19
2022-09-23T16:31:19.304Z,52.78
2022-09-23T16:33:47.177Z,52.16
2022-09-23T16:36:28.888Z,52.10
2022-09-23T16:38:56.721Z,52.55
2022-09-23T16:41:24.767Z,52.09
2022-09-23T16:43:52.918Z,52.64
2022-09-23T16:46:20.793Z,52.96
2022-09-23T16:48:52.357Z,53.25
2022-09-23T16:51:21.228Z,53.26
2022-09-23T16:53:49.344Z,53.45
2022-09-23T16:56:17.535Z,53.52
2022-09-23T16:58:44.862Z,53.94
2022-09-23T17:01:39.362Z,53.85
2022-09-23T17:04:07.447Z,54.50
2022-09-23T17:06:35.509Z,55.15
2022-09-23T17:09:03.023Z,54.85
2022-09-23T17:11:33.964Z,54.89
2022-09-23T17:14:01.879Z,54.84
2022-09-23T17:16:30.823Z,54.86
2022-09-23T17:18:58.229Z,55.27
2022-09-23T17:21:26.870Z,55.14
2022-09-23T17:23:55.099Z,55.69
2022-09-23T17:26:23.889Z,55.66
2022-09-23T17:28:51.954Z,55.55
2022-09-23T17:31:19.512Z,55.60
2022-09-23T17:33:46.918Z,55.85
2022-09-23T17:36:14.730Z,56.21
2022-09-23T17:38:45.986Z,56.48
2022-09-23T17:41:13.728Z,57.21
2022-09-23T17:43:41.491Z,57.12
2022-09-23T17:46:18.187Z,56.92
2022-09-23T17:48:45.925Z,57.19
2022-09-23T17:51:15.050Z,57.32
2022-09-23T17:53:45.012Z,57.32
2022-09-23T17:56:20.133Z,57.36
2022-09-23T17:58:48.410Z,57.55
2022-09-23T18:01:18.378Z,57.01
2022-09-23T18:03:46.386Z,56.88
2022-09-23T18:06:13.626Z,56.82
2022-09-23T18:08:41.868Z,57.32
2022-09-23T18:11:22.754Z,57.44
2022-09-23T18:13:51.032Z,58.15
2022-09-23T18:16:19.087Z,58.04
2022-09-23T18:18:53.461Z,58.47
2022-09-23T18:21:21.860Z,58.58
2022-09-23T18:23:49.308Z,57.79
2022-09-23T18:26:17.891Z,58.63
2022-09-23T18:28:45.862Z,59.00
2022-09-23T18:31:18.022Z,59.25
2022-09-23T18:33:52.181Z,59.31
2022-09-23T18:36:23.873Z,59.41
2022-09-23T18:38:52.189Z,59.74
2022-09-23T18:41:19.718Z,59.84
2022-09-23T18:43:48.693Z,59.98
2022-09-23T18:46:18.423Z,60.53
2022-09-23T18:49:04.660Z,60.09
2022-09-23T18:51:32.556Z,59.93
2022-09-23T18:54:00.753Z,60.14
2022-09-23T18:56:39.610Z,59.90
2022-09-23T18:59:14.471Z,60.28
2022-09-23T19:01:42.085Z,60.49
2022-09-23T19:04:09.959Z,60.72
2022-09-23T19:06:37.437Z,60.59
2022-09-23T19:09:05.826Z,60.21
2022-09-23T19:11:36.186Z,60.50
2022-09-23T19:14:08.162Z,60.46
2022-09-23T19:16:37.523Z,60.11
2022-09-23T19:19:05.257Z,60.75
2022-09-23T19:21:33.445Z,60.71
2022-09-23T19:24:03.650Z,60.59
2022-09-23T19:26:38.243Z,60.48
2022-09-23T19:29:08.404Z,61.16
2022-09-23T19:31:39.139Z,60.76
2022-09-23T19:34:11.474Z,61.01
2022-09-23T19:36:39.921Z,60.39
2022-09-23T19:39:21.107Z,60.54
2022-09-23T19:41:49.053Z,60.83
2022-09-23T19:44:17.891Z,60.41
2022-09-23T19:46:46.232Z,60.70
2022-09-23T19:49:13.876Z,60.21
2022-09-23T19:51:41.520Z,59.52
2022-09-23T19:54:09.962Z,60.69
2022-09-23T19:56:38.582Z,60.59
2022-09-23T19:59:09.177Z,61.11
2022-09-23T20:01:36.650Z,60.94
2022-09-23T20:04:04.402Z,60.77
2022-09-23T20:06:33.933Z,60.69
2022-09-23T20:09:01.540Z,60.29
2022-09-23T20:11:29.379Z,60.64
2022-09-23T20:14:02.179Z,60.43
2022-09-23T20:16:32.268Z,60.92
2022-09-23T20:19:00.305Z,60.74
2022-09-23T20:21:28.405Z,61.08
2022-09-23T20:23:56.429Z,60.87
2022-09-23T20:26:42.627Z,61.29
2022-09-23T20:29:11.025Z,61.63
2022-09-23T20:31:40.422Z,61.06
2022-09-23T20:34:08.205Z,61.35
2022-09-23T20:36:36.247Z,61.88
2022-09-23T20:39:05.749Z,61.17
2022-09-23T20:41:36.817Z,61.01
2022-09-23T20:44:06.359Z,60.88
2022-09-23T20:46:34.331Z,60.94
2022-09-23T20:49:02.214Z,60.39
2022-09-23T20:51:32.971Z,60.58
2022-09-23T20:54:00.546Z,60.91
2022-09-23T20:56:28.544Z,60.96
2022-09-23T20:59:00.174Z,60.67
2022-09-23T21:01:27.742Z,60.86
2022-09-23T21:03:55.993Z,60.96
2022-09-23T21:06:25.139Z,60.51
2022-09-23T21:08:53.394Z,60.95
2022-09-23T21:11:20.872Z,61.03
2022-09-23T21:13:49.723Z,60.72
2022-09-23T21:16:18.341Z,60.76
2022-09-23T21:18:45.941Z,60.59
2022-09-23T21:21:14.380Z,60.86
2022-09-23T21:23:41.964Z,60.51
2022-09-23T21:26:13.742Z,60.94
2022-09-23T21:28:48.481Z,60.32
2022-09-23T21:31:23.083Z,60.99
2022-09-23T21:34:02.133Z,60.81
2022-09-23T21:36:39.416Z,60.59
2022-09-23T21:39:07.842Z,61.12
2022-09-23T21:41:35.242Z,61.25
2022-09-23T21:44:04.642Z,60.88
2022-09-23T21:46:35.595Z,61.15
2022-09-23T21:49:03.987Z,61.69
2022-09-23T21:51:38.768Z,61.52
2022-09-23T21:54:16.040Z,61.38
2022-09-23T21:56:43.891Z,61.13
2022-09-23T21:59:11.315Z,61.46
2022-09-23T22:01:40.960Z,62.13
2022-09-23T22:04:16.923Z,61.10
2022-09-23T22:06:44.577Z,60.92
2022-09-23T22:09:14.131Z,61.65
2022-09-23T22:12:00.340Z,61.79
2022-09-23T22:14:28.101Z,61.07
2022-09-23T22:16:57.329Z,61.15
2022-09-23T22:19:35.318Z,61.19
2022-09-23T22:22:08.257Z,60.29
2022-09-23T22:24:35.601Z,61.01
2022-09-23T22:27:03.232Z,60.64
2022-09-23T22:29:49.150Z,61.29
2022-09-23T22:32:35.543Z,60.56
2022-09-23T22:35:03.182Z,59.72
2022-09-23T22:37:35.036Z,60.51
2022-09-23T22:40:06.434Z,59.78
2022-09-23T22:42:34.638Z,60.68
2022-09-23T22:45:05.150Z,60.32
2022-09-23T22:47:37.639Z,60.15
2022-09-23T22:50:06.529Z,60.48
2022-09-23T22:52:34.211Z,60.33
2022-09-23T22:55:01.607Z,60.70
2022-09-23T22:57:29.225Z,60.86
2022-09-23T22:59:56.555Z,61.48
2022-09-23T23:02:24.015Z,61.42
2022-09-23T23:04:51.636Z,62.19
2022-09-23T23:07:22.925Z,61.60
2022-09-23T23:09:50.495Z,61.67
2022-09-23T23:12:20.157Z,62.10
2022-09-23T23:14:48.278Z,62.00
2022-09-23T23:17:15.746Z,62.62
2022-09-23T23:19:43.429Z,61.99
2022-09-23T23:22:10.731Z,61.84
2022-09-23T23:24:38.085Z,62.06
2022-09-23T23:27:05.667Z,61.88
2022-09-23T23:29:33.138Z,61.57
2022-09-23T23:32:00.626Z,61.60
2022-09-23T23:34:28.249Z,61.42
2022-09-23T23:36:55.828Z,61.23
2022-09-23T23:39:23.838Z,60.90
2022-09-23T23:41:53.284Z,61.00
2022-09-23T23:44:20.677Z,60.81
2022-09-23T23:46:49.107Z,61.08
2022-09-23T23:49:16.859Z,61.33
2022-09-23T23:51:44.481Z,61.36
2022-09-23T23:54:12.292Z,60.98
2022-09-23T23:56:39.879Z,61.64
2022-09-23T23:59:07.180Z,61.70
